Time;durP1;ratioP1;P1;durP2;ratioP2;P2;SDS_P1;SDS_P2;PMS_P1;PMS_P2;Temp;Humidity;BMP_temperature;BMP_pressure;BME280_temperature;BME280_humidity;BME280_pressure;Samples;Min_cycle;Max_cycle;Signal;HPM_P1;HPM_P2
2021/09/11 00:01:42;;;;;;;9.57;6.10;;;;;;;19.97;62.65;101150.16;5026999;27;102729;-45
2021/09/11 00:04:09;;;;;;;8.05;5.72;;;;;;;19.97;62.40;101150.16;5021287;27;103868;-45
2021/09/11 00:06:37;;;;;;;7.35;6.10;;;;;;;19.96;62.44;101152.13;5017983;27;102351;-48
2021/09/11 00:09:03;;;;;;;6.53;5.82;;;;;;;19.96;62.55;101154.88;5024821;27;102353;-46
2021/09/11 00:11:32;;;;;;;7.78;6.22;;;;;;;19.97;62.30;101144.66;5031440;27;102267;-47
2021/09/11 00:13:59;;;;;;;7.35;6.20;;;;;;;19.96;62.73;101143.03;5022776;27;103786;-46
2021/09/11 00:16:25;;;;;;;6.93;6.22;;;;;;;19.96;62.60;101140.25;5021580;27;102395;-48
2021/09/11 00:19:02;;;;;;;6.55;5.90;;;;;;;19.97;62.82;101144.66;5015666;27;102220;-48
2021/09/11 00:21:28;;;;;;;7.82;6.80;;;;;;;19.95;62.72;101135.88;5019664;27;102456;-45
2021/09/11 00:23:56;;;;;;;8.13;6.22;;;;;;;19.96;62.60;101137.50;5027769;27;104023;-48
2021/09/11 00:26:23;;;;;;;6.20;5.60;;;;;;;19.96;62.52;101138.31;5020295;27;102518;-52
2021/09/11 00:28:51;;;;;;;7.15;6.18;;;;;;;19.97;62.69;101139.13;5030300;27;102809;-46
2021/09/11 00:31:18;;;;;;;7.68;6.60;;;;;;;19.95;62.73;101130.38;5024156;27;102180;-47
2021/09/11 00:33:45;;;;;;;9.75;6.88;;;;;;;19.95;62.72;101130.38;5021818;27;103909;-51
2021/09/11 00:36:12;;;;;;;8.15;6.55;;;;;;;19.97;62.73;101136.34;5029310;27;103737;-46
2021/09/11 00:38:39;;;;;;;8.93;7.18;;;;;;;19.96;62.84;101135.56;5022106;27;101940;-47
2021/09/11 00:41:07;;;;;;;8.00;7.20;;;;;;;19.96;62.74;101137.50;5025649;27;102803;-48
2021/09/11 00:43:35;;;;;;;7.70;6.90;;;;;;;19.96;62.52;101131.97;5022242;27;103049;-48
2021/09/11 00:46:04;;;;;;;6.75;6.03;;;;;;;19.96;62.80;101137.50;5020510;27;102864;-48
2021/09/11 00:48:31;;;;;;;6.93;6.05;;;;;;;19.96;62.82;101143.03;5024472;27;102082;-46
2021/09/11 00:50:57;;;;;;;6.50;5.65;;;;;;;19.96;62.65;101131.97;5034298;27;102672;-46
2021/09/11 00:53:24;;;;;;;7.03;6.07;;;;;;;19.95;62.88;101124.84;5021108;27;103713;-48
2021/09/11 00:55:51;;;;;;;8.02;6.57;;;;;;;19.94;62.61;101135.06;5024209;27;102571;-48
2021/09/11 00:58:19;;;;;;;6.40;5.80;;;;;;;19.96;62.74;101137.50;5020588;27;102016;-49
2021/09/11 01:00:46;;;;;;;7.00;6.30;;;;;;;19.94;62.86;101140.56;5025247;27;103019;-48
2021/09/11 01:03:13;;;;;;;6.63;5.93;;;;;;;19.96;62.83;101143.03;5019039;27;103992;-47
2021/09/11 01:05:40;;;;;;;6.53;5.85;;;;;;;19.95;62.82;101138.66;5023299;27;102664;-48
2021/09/11 01:08:06;;;;;;;7.55;6.75;;;;;;;19.95;62.62;101135.88;5019320;27;103178;-48
2021/09/11 01:10:36;;;;;;;8.10;6.03;;;;;;;19.94;62.83;101135.06;5022086;27;102240;-46
2021/09/11 01:13:04;;;;;;;7.90;6.20;;;;;;;19.95;62.56;101130.38;5015154;27;104060;-47
2021/09/11 01:15:56;;;;;;;7.22;5.55;;;;;;;19.93;62.86;101131.47;5025468;27;102579;-48
2021/09/11 01:18:24;;;;;;;8.13;6.68;;;;;;;19.93;62.68;101134.25;5025331;27;102465;-47
2021/09/11 01:20:51;;;;;;;8.38;6.85;;;;;;;19.95;62.97;101135.88;5022806;27;103194;-45
2021/09/11 01:23:18;;;;;;;7.55;6.47;;;;;;;19.94;62.97;101135.06;5015976;27;103791;-46
2021/09/11 01:25:46;;;;;;;7.38;6.30;;;;;;;19.94;62.97;101129.53;5023229;27;102744;-47
2021/09/11 01:28:13;;;;;;;7.20;6.23;;;;;;;19.95;62.96;101130.38;5027898;27;102720;-45
2021/09/11 01:30:40;;;;;;;7.53;6.72;;;;;;;19.94;62.74;101135.06;5028794;27;102232;-45
2021/09/11 01:33:06;;;;;;;8.73;7.00;;;;;;;19.93;62.98;101131.47;5026988;27;103613;-47
2021/09/11 01:35:33;;;;;;;7.50;6.47;;;;;;;19.93;63.03;101131.47;5027140;27;102578;-47
2021/09/11 01:37:59;;;;;;;8.00;6.68;;;;;;;19.93;62.67;101134.25;5025682;27;102518;-47
2021/09/11 01:40:26;;;;;;;7.10;6.35;;;;;;;19.94;62.94;101132.28;5029125;27;102449;-47
2021/09/11 01:42:55;;;;;;;6.57;5.88;;;;;;;19.94;63.15;101135.06;5023723;27;104879;-46
2021/09/11 01:45:23;;;;;;;7.07;6.20;;;;;;;19.93;62.83;101139.75;5027235;27;102372;-45
2021/09/11 01:47:51;;;;;;;7.70;6.07;;;;;;;19.93;62.63;101134.25;5024771;27;102156;-46
2021/09/11 01:50:19;;;;;;;8.00;6.57;;;;;;;19.93;62.76;101133.44;5026663;27;102154;-45
2021/09/11 01:52:46;;;;;;;6.88;6.18;;;;;;;19.94;62.91;101137.81;5012118;27;103893;-45
2021/09/11 01:55:14;;;;;;;7.32;6.50;;;;;;;19.94;62.86;101132.28;5026106;27;102193;-48
2021/09/11 01:57:43;;;;;;;6.88;6.18;;;;;;;19.93;62.96;101133.44;5028698;27;102358;-48
2021/09/11 02:00:13;;;;;;;7.35;6.57;;;;;;;19.94;62.88;101129.53;5025291;27;102186;-45
2021/09/11 02:02:41;;;;;;;7.63;6.60;;;;;;;19.95;62.83;101124.84;5029084;27;103898;-47
2021/09/11 02:05:10;;;;;;;7.47;6.78;;;;;;;19.94;62.87;101124.00;5027519;27;102484;-46
2021/09/11 02:07:36;;;;;;;7.60;6.80;;;;;;;19.93;63.02;101127.91;5029321;27;102619;-48
2021/09/11 02:10:05;;;;;;;7.38;6.68;;;;;;;19.93;63.04;101123.19;5025313;27;103079;-49
2021/09/11 02:12:31;;;;;;;7.95;7.15;;;;;;;19.92;63.01;101123.53;5019667;27;103945;-45
2021/09/11 02:14:58;;;;;;;18.25;7.50;;;;;;;19.93;62.87;101122.38;5019972;27;102449;-46
2021/09/11 02:17:26;;;;;;;6.88;6.18;;;;;;;19.93;63.17;101137.00;5023138;27;103543;-47
2021/09/11 02:19:54;;;;;;;8.48;6.22;;;;;;;19.93;63.16;101133.44;5030580;27;102821;-45
2021/09/11 02:22:21;;;;;;;7.13;6.43;;;;;;;19.93;63.03;101134.25;5035726;27;103756;-46
2021/09/11 02:24:51;;;;;;;7.38;6.65;;;;;;;19.93;62.95;101122.38;5030819;27;102518;-45
2021/09/11 02:27:18;;;;;;;7.90;7.20;;;;;;;19.92;63.15;101121.56;5027477;27;103320;-45
2021/09/11 02:29:44;;;;;;;9.30;7.40;;;;;;;19.92;62.90;101129.88;5029779;27;102771;-45
2021/09/11 02:32:11;;;;;;;7.75;6.95;;;;;;;19.93;63.30;101123.19;5030869;27;103831;-46
2021/09/11 02:34:39;;;;;;;9.77;6.80;;;;;;;19.92;63.16;101121.56;5014972;27;102468;-45
2021/09/11 02:37:06;;;;;;;7.73;6.87;;;;;;;19.92;63.17;101121.56;5025383;27;102023;-47
2021/09/11 02:39:33;;;;;;;7.72;6.93;;;;;;;19.93;63.29;101122.38;5018244;27;103608;-46
2021/09/11 02:42:00;;;;;;;8.85;6.85;;;;;;;19.93;62.96;101122.38;5021276;27;103287;-48
2021/09/11 02:44:26;;;;;;;8.25;6.68;;;;;;;19.93;63.31;101130.66;5024250;27;102240;-46
2021/09/11 02:46:53;;;;;;;8.13;6.65;;;;;;;19.92;63.05;101129.88;5023515;27;102453;-47
2021/09/11 02:49:20;;;;;;;7.57;6.70;;;;;;;19.92;63.27;101135.38;5021049;27;102237;-46
2021/09/11 02:51:49;;;;;;;8.20;7.15;;;;;;;19.92;63.08;101132.63;5014267;27;103902;-48
2021/09/11 02:54:15;;;;;;;9.40;7.30;;;;;;;19.92;63.08;101131.81;5023443;27;102600;-48
2021/09/11 02:56:42;;;;;;;9.88;7.53;;;;;;;19.92;62.99;101132.63;5026375;27;102547;-46
2021/09/11 02:59:08;;;;;;;7.57;6.80;;;;;;;19.91;63.18;101131.00;5019612;27;102607;-48
2021/09/11 03:01:35;;;;;;;7.38;6.60;;;;;;;19.91;63.39;101119.97;5024207;27;103601;-48
2021/09/11 03:04:03;;;;;;;8.00;7.10;;;;;;;19.93;63.11;101133.44;5023169;27;102460;-48
2021/09/11 03:06:29;;;;;;;7.82;7.03;;;;;;;19.92;63.41;101132.63;5023614;27;102275;-47
2021/09/11 03:08:58;;;;;;;8.50;7.47;;;;;;;19.91;63.25;101136.53;5020588;27;102152;-47
2021/09/11 03:11:35;;;;;;;9.30;7.05;;;;;;;19.93;63.01;101136.19;5020448;27;103906;-47
2021/09/11 03:14:02;;;;;;;9.65;7.40;;;;;;;19.91;63.16;101139.28;5014753;27;102723;-46
2021/09/11 03:16:28;;;;;;;7.70;6.78;;;;;;;19.91;63.29;101139.28;5023466;27;102244;-46
2021/09/11 03:18:54;;;;;;;7.95;6.97;;;;;;;19.92;63.26;101151.16;5022223;27;102516;-47
2021/09/11 03:21:21;;;;;;;9.35;6.57;;;;;;;19.92;63.46;101149.19;5023150;27;103879;-49
2021/09/11 03:23:48;;;;;;;7.75;6.95;;;;;;;19.91;62.93;101147.56;5031778;27;102083;-46
2021/09/11 03:26:17;;;;;;;9.05;7.60;;;;;;;19.92;63.09;101142.88;5033389;27;102483;-47
2021/09/11 03:28:44;;;;;;;8.50;7.60;;;;;;;19.91;63.43;101144.81;5039903;27;102087;-45
2021/09/11 03:31:10;;;;;;;7.95;7.05;;;;;;;19.92;63.33;101143.66;5019900;27;103668;-45
2021/09/11 03:33:36;;;;;;;8.45;7.10;;;;;;;19.91;63.41;101142.06;5024307;27;102422;-46
2021/09/11 03:36:04;;;;;;;8.07;7.18;;;;;;;19.91;63.36;101142.06;5026826;27;102427;-48
2021/09/11 03:38:31;;;;;;;7.88;7.05;;;;;;;19.91;63.36;101144.81;5027028;27;102741;-45
2021/09/11 03:41:07;;;;;;;8.38;7.47;;;;;;;19.91;63.13;101147.56;5022431;27;104423;-47
2021/09/11 03:43:35;;;;;;;7.05;6.35;;;;;;;19.91;63.57;101136.53;5019740;27;102306;-49
2021/09/11 03:46:02;;;;;;;7.70;6.90;;;;;;;19.91;63.07;101147.56;5024496;27;102748;-45
2021/09/11 03:48:30;;;;;;;8.32;7.40;;;;;;;19.91;63.54;101141.25;5022928;27;102318;-47
2021/09/11 03:50:57;;;;;;;8.60;7.70;;;;;;;19.91;63.31;101141.25;5023021;27;104072;-46
2021/09/11 03:53:24;;;;;;;7.88;7.05;;;;;;;19.91;63.32;101142.06;5024600;27;102557;-47
2021/09/11 03:56:05;;;;;;;7.65;6.68;;;;;;;19.91;63.34;101147.56;5014677;27;102765;-47
2021/09/11 03:58:33;;;;;;;8.50;7.55;;;;;;;19.91;63.27;101147.56;5036077;27;102806;-45
2021/09/11 04:01:03;;;;;;;7.43;6.65;;;;;;;19.90;63.20;101145.94;5015341;27;103944;-48
2021/09/11 04:03:31;;;;;;;7.88;7.07;;;;;;;19.91;63.42;101152.28;5015122;27;102526;-47
2021/09/11 04:05:58;;;;;;;8.15;7.32;;;;;;;19.90;63.55;101151.47;5024819;27;102653;-45
2021/09/11 04:08:25;;;;;;;8.85;6.75;;;;;;;19.91;63.10;101147.56;5021365;27;102380;-45
2021/09/11 04:10:51;;;;;;;8.48;7.68;;;;;;;19.90;63.43;101145.94;5019437;27;103966;-47
2021/09/11 04:13:38;;;;;;;7.95;7.15;;;;;;;19.90;62.97;101148.69;5021472;27;102606;-48
2021/09/11 04:16:06;;;;;;;7.78;6.90;;;;;;;19.90;63.42;101156.19;5016541;27;102131;-48
2021/09/11 04:18:33;;;;;;;8.63;7.25;;;;;;;19.90;63.35;101151.47;5015505;27;102569;-45
2021/09/11 04:21:19;;;;;;;8.10;7.30;;;;;;;19.90;63.25;101145.94;5015154;28;105091;-48
2021/09/11 04:23:47;;;;;;;7.75;7.00;;;;;;;19.90;63.42;101143.16;5025283;27;102315;-46
2021/09/11 04:26:15;;;;;;;8.65;7.75;;;;;;;19.90;63.38;101151.47;5015712;27;105278;-49
2021/09/11 04:28:42;;;;;;;8.20;7.32;;;;;;;19.90;63.30;101143.16;5027678;27;102807;-47
2021/09/11 04:31:10;;;;;;;7.63;6.80;;;;;;;19.90;63.40;101151.47;5025396;27;102662;-46
2021/09/11 04:33:36;;;;;;;7.95;7.18;;;;;;;19.90;63.36;101154.22;5026460;27;102657;-45
2021/09/11 04:36:03;;;;;;;7.93;6.75;;;;;;;19.90;63.49;101153.41;5024066;27;102334;-48
2021/09/11 04:38:30;;;;;;;8.05;7.28;;;;;;;19.90;63.53;101150.66;5014474;28;102510;-48
2021/09/11 04:40:57;;;;;;;8.05;6.88;;;;;;;19.89;63.61;101149.84;5017327;27;104020;-48
2021/09/11 04:43:24;;;;;;;7.80;7.00;;;;;;;19.89;63.24;101147.06;5025132;27;102652;-45
2021/09/11 04:45:51;;;;;;;8.52;7.30;;;;;;;19.89;63.42;101141.56;5020037;27;102250;-46
2021/09/11 04:48:28;;;;;;;8.27;7.40;;;;;;;19.90;63.54;101147.88;5027527;27;102446;-47
2021/09/11 04:50:56;;;;;;;7.43;6.73;;;;;;;19.89;63.08;101144.31;5026501;27;104366;-48
2021/09/11 04:53:22;;;;;;;7.18;6.47;;;;;;;19.90;63.26;101145.94;5028295;27;104009;-46
2021/09/11 04:55:51;;;;;;;7.68;6.88;;;;;;;19.89;63.61;101136.03;5019885;28;102080;-45
2021/09/11 04:58:17;;;;;;;8.48;6.95;;;;;;;19.90;63.10;101145.13;5033664;27;102591;-45
2021/09/11 05:00:44;;;;;;;7.15;6.43;;;;;;;19.89;63.43;101144.31;5023286;27;104316;-45
2021/09/11 05:03:10;;;;;;;6.90;6.20;;;;;;;19.89;63.45;101143.50;5020731;27;102835;-44
2021/09/11 05:05:39;;;;;;;7.65;6.43;;;;;;;19.89;63.24;101144.31;5026860;27;102577;-45
2021/09/11 05:08:08;;;;;;;7.28;6.53;;;;;;;19.89;63.51;101133.28;5027851;27;102807;-46
2021/09/11 05:10:34;;;;;;;7.93;7.13;;;;;;;19.89;63.49;101147.06;5008266;27;103873;-46
2021/09/11 05:13:01;;;;;;;7.75;7.05;;;;;;;19.89;63.46;101138.78;5036373;27;102527;-46
2021/09/11 05:15:28;;;;;;;8.88;7.28;;;;;;;19.89;63.52;101130.50;5033522;27;102033;-45
2021/09/11 05:17:54;;;;;;;8.30;7.47;;;;;;;19.89;63.30;101130.50;5034230;27;102339;-45
2021/09/11 05:20:23;;;;;;;8.45;7.57;;;;;;;19.89;63.30;101127.75;5023199;27;104025;-47
2021/09/11 05:22:50;;;;;;;9.15;8.25;;;;;;;19.90;63.40;101134.88;5024850;27;102314;-46
2021/09/11 05:25:19;;;;;;;9.52;8.52;;;;;;;19.90;63.23;101132.13;5023087;27;102553;-46
2021/09/11 05:27:46;;;;;;;8.93;8.00;;;;;;;19.91;63.33;101136.53;5022350;27;102841;-45
2021/09/11 05:30:15;;;;;;;9.43;8.43;;;;;;;19.91;63.16;101138.47;5016511;27;103995;-46
2021/09/11 05:32:42;;;;;;;10.25;8.18;;;;;;;19.91;63.63;101133.78;5021132;27;102522;-48
2021/09/11 05:35:09;;;;;;;9.23;8.07;;;;;;;19.92;63.50;101140.91;5025071;27;102178;-47
2021/09/11 05:37:37;;;;;;;8.50;7.65;;;;;;;19.92;63.51;101140.91;5019084;27;102914;-49
2021/09/11 05:40:06;;;;;;;10.00;7.93;;;;;;;19.91;63.68;101136.53;5039233;27;104131;-45
2021/09/11 05:42:36;;;;;;;9.35;8.38;;;;;;;19.93;63.56;101137.00;5022852;27;102898;-48
2021/09/11 05:45:05;;;;;;;11.15;8.68;;;;;;;19.93;63.30;101136.19;5012960;27;102265;-45
2021/09/11 05:47:32;;;;;;;8.60;7.70;;;;;;;19.95;63.56;101135.88;5019881;27;102681;-45
2021/09/11 05:49:58;;;;;;;9.57;8.63;;;;;;;19.93;63.53;101137.00;5022468;27;103918;-45
2021/09/11 05:52:26;;;;;;;9.93;8.93;;;;;;;19.95;63.62;101135.88;5023341;27;102190;-45
2021/09/11 05:54:53;;;;;;;10.73;8.65;;;;;;;19.96;63.62;101137.50;5030626;27;102471;-45
2021/09/11 05:57:21;;;;;;;9.48;8.50;;;;;;;19.97;63.41;101139.13;5033446;27;103809;-46
2021/09/11 05:59:48;;;;;;;9.80;7.95;;;;;;;19.96;63.55;101134.75;5035802;27;103880;-47
2021/09/11 06:02:14;;;;;;;11.52;9.50;;;;;;;19.98;63.74;101140.75;5024390;27;102202;-47
2021/09/11 06:04:41;;;;;;;10.48;9.32;;;;;;;19.97;63.92;101128.06;5028320;27;102300;-45
2021/09/11 06:07:07;;;;;;;10.35;9.23;;;;;;;19.99;63.92;101139.63;5020424;27;102395;-48
2021/09/11 06:09:34;;;;;;;10.10;9.00;;;;;;;19.98;63.53;101137.97;5025449;27;103909;-48
2021/09/11 06:12:01;;;;;;;12.25;9.70;;;;;;;19.99;63.86;101136.84;5028108;27;102608;-45
2021/09/11 06:14:28;;;;;;;11.20;9.63;;;;;;;19.98;63.75;101141.56;5021044;27;102100;-47
2021/09/11 06:16:55;;;;;;;13.45;9.23;;;;;;;19.99;63.79;101136.84;5026807;27;103044;-47
2021/09/11 06:19:21;;;;;;;11.63;9.30;;;;;;;20.01;64.02;101145.63;5019613;27;104271;-47
2021/09/11 06:21:48;;;;;;;10.60;9.05;;;;;;;20.00;64.07;101144.81;5024547;27;102731;-48
2021/09/11 06:24:14;;;;;;;11.50;9.85;;;;;;;20.00;63.98;101135.72;5023050;27;102520;-47
2021/09/11 06:26:41;;;;;;;10.68;9.57;;;;;;;20.02;63.89;101147.25;5029212;27;103349;-47
2021/09/11 06:29:08;;;;;;;10.73;9.63;;;;;;;20.03;63.89;101148.88;5020988;27;103982;-47
2021/09/11 06:31:36;;;;;;;10.32;9.25;;;;;;;20.02;64.01;101152.78;5021626;27;102395;-48
2021/09/11 06:34:03;;;;;;;9.55;8.57;;;;;;;20.02;63.81;101147.25;5029401;27;102692;-45
2021/09/11 06:36:29;;;;;;;10.90;9.73;;;;;;;20.04;64.02;101150.50;5022611;27;102412;-47
2021/09/11 06:38:56;;;;;;;12.48;9.50;;;;;;;20.04;63.91;101150.50;5028585;27;104686;-47
2021/09/11 06:41:22;;;;;;;10.80;9.70;;;;;;;20.03;63.90;101152.44;5025270;27;102703;-47
2021/09/11 06:43:50;;;;;;;11.13;10.00;;;;;;;20.05;64.14;101141.06;5018042;27;102337;-46
2021/09/11 06:46:16;;;;;;;10.82;9.68;;;;;;;20.06;63.85;101156.53;5020637;27;102729;-45
2021/09/11 06:48:44;;;;;;;11.15;10.05;;;;;;;20.06;63.99;101156.53;5021415;27;104113;-48
2021/09/11 06:51:14;;;;;;;11.27;9.93;;;;;;;20.06;64.00;101142.72;5023222;27;102734;-46
2021/09/11 06:53:41;;;;;;;10.60;9.40;;;;;;;20.07;64.22;101160.91;5018092;27;102603;-48
2021/09/11 06:56:07;;;;;;;12.00;9.82;;;;;;;20.08;63.89;101157.00;5021674;27;102689;-48
2021/09/11 06:58:34;;;;;;;12.15;9.60;;;;;;;20.09;63.96;101158.66;5033806;27;103916;-48
2021/09/11 07:01:00;;;;;;;10.75;9.30;;;;;;;20.09;64.12;101147.59;5034897;27;102319;-47
2021/09/11 07:03:27;;;;;;;10.82;9.57;;;;;;;20.09;64.26;101156.69;5020356;27;102700;-47
2021/09/11 07:05:56;;;;;;;13.63;10.23;;;;;;;20.11;63.94;101150.81;5028832;27;102759;-46
2021/09/11 07:08:22;;;;;;;10.25;9.23;;;;;;;20.11;64.29;101148.06;5013795;27;103698;-48
2021/09/11 07:10:48;;;;;;;13.32;10.32;;;;;;;20.11;63.86;101156.34;5016496;27;102689;-47
2021/09/11 07:13:15;;;;;;;11.40;9.85;;;;;;;20.12;63.96;101164.34;5020841;27;103030;-45
2021/09/11 07:15:43;;;;;;;14.00;10.65;;;;;;;20.12;64.30;101163.50;5020082;27;105457;-46
2021/09/11 07:18:10;;;;;;;14.35;11.02;;;;;;;20.12;64.24;101167.09;5014668;27;103872;-46
2021/09/11 07:20:37;;;;;;;16.58;10.82;;;;;;;20.13;64.21;101162.38;5016713;27;102937;-46
2021/09/11 07:23:05;;;;;;;13.95;11.02;;;;;;;20.14;64.05;101164.00;5016349;27;102377;-48
2021/09/11 07:25:31;;;;;;;16.13;11.17;;;;;;;20.14;64.04;101164.00;5025196;27;102683;-48
2021/09/11 07:27:58;;;;;;;17.90;11.15;;;;;;;20.15;64.09;101168.38;5013653;27;103936;-46
2021/09/11 07:30:24;;;;;;;17.00;11.40;;;;;;;20.15;64.43;101166.41;5016665;27;102595;-48
2021/09/11 07:32:51;;;;;;;16.30;11.20;;;;;;;20.16;64.10;101159.78;5029403;27;102610;-46
2021/09/11 07:35:18;;;;;;;17.70;11.82;;;;;;;20.16;64.07;101161.72;5020206;27;102973;-47
2021/09/11 07:37:45;;;;;;;32.58;13.38;;;;;;;20.18;63.80;101162.19;5017787;27;104338;-46
2021/09/11 07:40:13;;;;;;;16.00;12.25;;;;;;;20.19;63.17;101161.06;5019103;27;102431;-47
2021/09/11 07:42:39;;;;;;;16.65;11.77;;;;;;;20.19;62.48;101152.75;5026720;27;102660;-48
2021/09/11 07:45:12;;;;;;;17.90;12.10;;;;;;;20.20;62.23;101148.88;5021677;27;103655;-48
2021/09/11 07:47:40;;;;;;;21.73;12.77;;;;;;;20.22;61.04;101152.13;5021926;27;102534;-48
2021/09/11 07:50:10;;;;;;;18.60;13.50;;;;;;;20.21;61.48;101156.03;5026384;27;102610;-45
2021/09/11 07:52:37;;;;;;;21.27;13.07;;;;;;;20.22;61.12;101152.13;5021931;27;102718;-46
2021/09/11 07:55:06;;;;;;;19.45;13.07;;;;;;;20.22;60.71;101163.16;5022270;27;102564;-46
2021/09/11 07:57:34;;;;;;;19.98;12.38;;;;;;;20.23;60.58;101158.44;5013374;27;103814;-48
2021/09/11 08:00:01;;;;;;;23.57;12.40;;;;;;;20.23;60.63;101158.44;5021895;27;102376;-45
2021/09/11 08:02:27;;;;;;;20.65;13.00;;;;;;;20.23;60.29;101159.28;5023582;27;102272;-48
2021/09/11 08:04:55;;;;;;;19.10;13.13;;;;;;;20.23;60.11;101156.53;5017793;27;102683;-46
2021/09/11 08:07:27;;;;;;;21.00;12.70;;;;;;;20.23;59.94;101145.47;5019784;27;103911;-45
2021/09/11 08:09:54;;;;;;;22.10;13.70;;;;;;;20.24;59.91;101144.31;5025670;27;102685;-46
2021/09/11 08:12:23;;;;;;;21.35;14.40;;;;;;;20.24;59.58;101141.56;5017827;27;103169;-47
2021/09/11 08:14:51;;;;;;;20.73;13.43;;;;;;;20.25;59.18;101140.41;5022029;27;102621;-46
2021/09/11 08:17:17;;;;;;;17.50;13.10;;;;;;;20.26;59.05;101133.75;5021981;27;109006;-47
2021/09/11 08:19:44;;;;;;;18.60;13.15;;;;;;;20.28;58.91;101137.00;5023782;27;102596;-46
2021/09/11 08:22:10;;;;;;;18.05;13.60;;;;;;;20.29;58.84;101122.03;5022570;27;102503;-46
2021/09/11 08:24:37;;;;;;;20.98;12.98;;;;;;;20.31;58.37;101121.72;5018297;27;102272;-45
2021/09/11 08:27:04;;;;;;;20.25;12.63;;;;;;;20.33;58.00;101120.25;5015039;27;104098;-45
2021/09/11 08:29:31;;;;;;;16.33;12.73;;;;;;;20.34;58.33;101121.88;5025256;27;102316;-47
2021/09/11 08:31:59;;;;;;;16.73;11.80;;;;;;;20.37;58.14;101114.88;5024652;27;102956;-46
2021/09/11 08:34:25;;;;;;;18.33;13.23;;;;;;;20.39;57.90;101109.84;5015507;27;102925;-45
2021/09/11 08:36:53;;;;;;;21.70;12.45;;;;;;;20.40;57.85;101105.94;5018918;27;102926;-47
2021/09/11 08:39:24;;;;;;;15.60;12.32;;;;;;;20.43;57.45;101094.22;5015277;27;102313;-48
2021/09/11 08:41:51;;;;;;;19.92;13.00;;;;;;;20.44;57.47;101098.59;5023317;27;102663;-46
2021/09/11 08:44:18;;;;;;;21.15;12.38;;;;;;;20.47;56.99;101102.66;5029511;27;102165;-45
2021/09/11 08:46:54;;;;;;;21.95;13.07;;;;;;;20.49;56.71;101089.34;5029693;27;104097;-47
2021/09/11 08:49:23;;;;;;;24.80;12.32;;;;;;;20.50;56.76;101090.97;5021269;27;102565;-47
2021/09/11 08:51:50;;;;;;;19.38;11.45;;;;;;;20.52;56.78;101083.16;5011165;27;102078;-46
2021/09/11 08:54:19;;;;;;;18.25;12.35;;;;;;;20.53;56.26;101080.06;5019154;27;102709;-47
2021/09/11 08:56:47;;;;;;;21.17;12.60;;;;;;;20.55;56.41;101082.50;5013788;27;103932;-45
2021/09/11 08:59:16;;;;;;;23.88;12.88;;;;;;;20.56;56.18;101084.94;5019592;27;102641;-46
2021/09/11 09:01:43;;;;;;;19.17;12.00;;;;;;;20.58;55.80;101073.53;5014909;27;102403;-47
2021/09/11 09:04:10;;;;;;;19.63;12.02;;;;;;;20.61;55.69;101078.41;5025108;27;103395;-46
2021/09/11 09:06:38;;;;;;;16.65;11.52;;;;;;;20.62;55.64;101068.97;5024241;27;103874;-47
2021/09/11 09:09:10;;;;;;;18.95;11.52;;;;;;;20.64;55.40;101075.81;5021347;27;102446;-48
2021/09/11 09:11:37;;;;;;;18.08;11.55;;;;;;;20.67;55.20;101071.56;5020038;27;102565;-47
2021/09/11 09:14:06;;;;;;;16.33;11.20;;;;;;;20.68;55.29;101073.19;5014611;27;102713;-46
2021/09/11 09:16:35;;;;;;;21.90;11.55;;;;;;;20.70;54.66;101062.63;5023384;27;103746;-47
2021/09/11 09:19:04;;;;;;;18.30;11.55;;;;;;;20.72;54.26;101054.78;5020172;27;102616;-47
2021/09/11 09:21:32;;;;;;;20.63;11.27;;;;;;;20.74;54.66;101060.81;5018999;27;102174;-47
2021/09/11 09:24:02;;;;;;;18.87;11.17;;;;;;;20.76;54.28;101054.94;5019006;27;102578;-47
2021/09/11 09:26:30;;;;;;;15.88;10.98;;;;;;;20.78;54.12;101047.13;5019500;27;105410;-47
2021/09/11 09:29:10;;;;;;;18.00;11.70;;;;;;;20.80;54.03;101056.69;5012490;27;102752;-48
2021/09/11 09:31:37;;;;;;;14.00;10.43;;;;;;;20.82;53.66;101059.94;5018476;27;102238;-47
2021/09/11 09:34:04;;;;;;;17.25;11.18;;;;;;;20.86;53.93;101049.03;5020932;27;102696;-47
2021/09/11 09:36:35;;;;;;;16.25;11.38;;;;;;;20.88;53.77;101057.84;5025764;27;103998;-52
2021/09/11 09:39:06;;;;;;;13.77;10.52;;;;;;;20.88;53.35;101058.63;5028622;27;103396;-46
2021/09/11 09:41:44;;;;;;;19.85;10.80;;;;;;;20.91;53.09;101048.84;5031143;27;102620;-48
2021/09/11 09:44:11;;;;;;;16.20;10.43;;;;;;;20.93;53.20;101049.31;5031143;27;102567;-47
2021/09/11 09:46:40;;;;;;;17.05;10.50;;;;;;;20.94;52.70;101050.94;5027433;27;103936;-47
2021/09/11 09:49:07;;;;;;;14.63;10.63;;;;;;;20.96;52.63;101056.16;5023301;27;102650;-47
2021/09/11 09:51:34;;;;;;;15.77;10.45;;;;;;;20.97;52.90;101043.94;5024799;27;102642;-46
2021/09/11 09:54:01;;;;;;;15.43;10.07;;;;;;;20.97;52.86;101050.28;5027827;27;102304;-50
2021/09/11 09:56:29;;;;;;;12.55;9.85;;;;;;;20.98;52.32;101040.81;5031772;27;103888;-47
2021/09/11 09:58:56;;;;;;;13.90;10.32;;;;;;;20.99;51.86;101047.16;5029286;28;102137;-47
2021/09/11 10:01:23;;;;;;;15.52;10.10;;;;;;;21.00;51.89;101037.75;5025321;27;102196;-46
2021/09/11 10:03:50;;;;;;;12.57;10.30;;;;;;;21.00;52.01;101038.56;5032118;27;102748;-51
2021/09/11 10:06:22;;;;;;;12.25;9.57;;;;;;;21.01;51.96;101045.69;5028392;27;103892;-47
2021/09/11 10:08:54;;;;;;;11.38;9.98;;;;;;;21.03;52.18;101031.53;5023050;27;102336;-46
2021/09/11 10:11:20;;;;;;;13.68;9.60;;;;;;;21.05;51.78;101040.31;5024515;27;102155;-47
2021/09/11 10:13:59;;;;;;;12.52;9.45;;;;;;;21.05;51.51;101034.78;5024984;27;102467;-47
2021/09/11 10:16:32;;;;;;;12.23;9.75;;;;;;;21.07;51.69;101038.03;5024859;27;104063;-46
2021/09/11 10:19:00;;;;;;;13.63;10.02;;;;;;;21.07;51.54;101029.72;5024725;27;102524;-46
2021/09/11 10:21:37;;;;;;;16.88;10.30;;;;;;;21.09;51.32;101030.19;5032617;27;102712;-47
2021/09/11 10:24:27;;;;;;;13.40;9.30;;;;;;;21.12;50.95;101029.53;5020199;27;102600;-46
2021/09/11 10:26:55;;;;;;;12.88;9.18;;;;;;;21.13;51.15;101022.84;5037340;27;103919;-46
2021/09/11 10:29:39;;;;;;;12.13;9.10;;;;;;;21.13;51.05;101028.38;5023427;27;103184;-47
2021/09/11 10:32:07;;;;;;;17.42;9.88;;;;;;;21.14;51.32;101016.16;5024263;27;102600;-47
2021/09/11 10:34:46;;;;;;;12.82;10.45;;;;;;;21.15;51.12;101016.97;5029370;27;103687;-47
2021/09/11 10:37:24;;;;;;;14.50;9.88;;;;;;;21.15;50.83;101006.72;5004713;27;104022;-47
2021/09/11 10:40:22;;;;;;;12.70;10.13;;;;;;;21.14;50.65;101018.94;5008153;27;102237;-47
2021/09/11 10:43:29;;;;;;;15.35;10.30;;;;;;;21.16;50.36;101013.06;5024264;27;102442;-46
2021/09/11 10:46:06;;;;;;;13.55;9.63;;;;;;;21.15;50.44;101009.47;5019214;27;102532;-46
2021/09/11 10:48:48;;;;;;;11.38;9.27;;;;;;;21.17;50.35;101009.13;5026885;27;103972;-47
2021/09/11 10:51:33;;;;;;;11.68;10.07;;;;;;;21.17;50.47;101009.97;5020626;27;102565;-46
2021/09/11 10:54:09;;;;;;;12.82;9.65;;;;;;;21.18;50.19;101014.34;5016989;27;102188;-47
2021/09/11 10:56:38;;;;;;;9.98;8.85;;;;;;;21.18;50.28;101014.34;5020480;27;102583;-47
2021/09/11 10:59:42;;;;;;;11.93;9.00;;;;;;;21.18;50.04;101011.59;5020495;27;104005;-47
2021/09/11 11:02:36;;;;;;;16.02;10.20;;;;;;;21.18;49.76;101008.81;5014899;27;102278;-46
2021/09/11 11:05:06;;;;;;;11.65;9.05;;;;;;;21.18;49.60;100994.97;5016149;27;102324;-46
2021/09/11 11:07:41;;;;;;;13.50;9.55;;;;;;;21.20;49.81;101003.72;5026273;27;102701;-46
2021/09/11 11:10:10;;;;;;;12.85;9.82;;;;;;;21.21;49.91;101013.69;5018873;28;104089;-46
2021/09/11 11:12:41;;;;;;;15.65;9.63;;;;;;;21.21;49.86;100994.31;5022510;27;102172;-46
2021/09/11 11:15:10;;;;;;;11.85;9.80;;;;;;;21.22;49.70;100995.13;5026487;27;102397;-47
2021/09/11 11:17:42;;;;;;;12.15;9.95;;;;;;;21.20;49.50;100992.66;5023964;27;102491;-46
2021/09/11 11:20:29;;;;;;;13.05;8.68;;;;;;;21.21;49.58;100988.78;5018823;27;104654;-46